sensor_id;sensor_type;location;lat;lon;timestamp;pressure;altitude;pressure_sealevel;temperature;humidity
48964;BME280;34776;48.180;16.420;2023-03-20T09:03:35;99998.59;;;29.51;28.69
48964;BME280;34776;48.180;16.420;2023-03-20T09:06:04;100004.59;;;29.90;27.94
48964;BME280;34776;48.180;16.420;2023-03-20T09:08:30;100006.47;;;29.18;27.93
48964;BME280;34776;48.180;16.420;2023-03-20T09:10:56;100008.78;;;29.00;28.25
48964;BME280;34776;48.180;16.420;2023-03-20T09:13:21;100005.25;;;28.84;27.55
48964;BME280;34776;48.180;16.420;2023-03-20T09:15:47;100010.56;;;27.44;29.30
48964;BME280;34776;48.180;16.420;2023-03-20T09:18:12;100011.56;;;26.97;29.21
48964;BME280;34776;48.180;16.420;2023-03-20T09:20:37;100017.06;;;25.19;31.20
48964;BME280;34776;48.180;16.420;2023-03-20T09:23:03;100019.31;;;24.65;32.42
48964;BME280;34776;48.180;16.420;2023-03-20T09:25:28;100014.34;;;25.19;31.89
48964;BME280;34776;48.180;16.420;2023-03-20T09:27:54;100007.22;;;25.59;31.40
48964;BME280;34776;48.180;16.420;2023-03-20T09:30:20;100002.44;;;26.02;31.16
48964;BME280;34776;48.180;16.420;2023-03-20T09:32:46;100004.47;;;25.84;30.90
48964;BME280;34776;48.180;16.420;2023-03-20T09:35:12;100001.97;;;25.33;31.54
48964;BME280;34776;48.180;16.420;2023-03-20T09:37:37;99992.53;;;24.78;32.46
48964;BME280;34776;48.180;16.420;2023-03-20T09:40:03;99998.75;;;24.20;33.14
48964;BME280;34776;48.180;16.420;2023-03-20T09:45:24;100003.13;;;23.60;33.05
48964;BME280;34776;48.180;16.420;2023-03-20T09:50:53;99999.59;;;22.33;33.66
48964;BME280;34776;48.180;16.420;2023-03-20T09:53:30;100003.34;;;21.75;34.84
48964;BME280;34776;48.180;16.420;2023-03-20T09:55:58;100002.22;;;21.28;35.55
48964;BME280;34776;48.180;16.420;2023-03-20T09:58:33;100005.91;;;20.88;35.66
48964;BME280;34776;48.180;16.420;2023-03-20T10:01:01;99991.13;;;20.83;36.16
48964;BME280;34776;48.180;16.420;2023-03-20T10:03:42;100000.81;;;20.85;36.14
48964;BME280;34776;48.180;16.420;2023-03-20T10:06:12;100003.78;;;20.82;36.17
48964;BME280;34776;48.180;16.420;2023-03-20T10:08:38;99999.69;;;21.07;36.04
48964;BME280;34776;48.180;16.420;2023-03-20T10:14:13;100001.66;;;21.05;35.33
48964;BME280;34776;48.180;16.420;2023-03-20T10:22:21;99979.16;;;20.66;35.92
48964;BME280;34776;48.180;16.420;2023-03-20T10:27:24;99971.41;;;20.42;36.61
48964;BME280;34776;48.180;16.420;2023-03-20T10:33:44;99973.44;;;19.78;36.93
48964;BME280;34776;48.180;16.420;2023-03-20T10:39:24;99976.78;;;19.29;37.83
48964;BME280;34776;48.180;16.420;2023-03-20T10:41:58;99974.50;;;19.24;38.12
48964;BME280;34776;48.180;16.420;2023-03-20T10:44:48;99968.25;;;19.23;38.35
48964;BME280;34776;48.180;16.420;2023-03-20T10:47:17;99970.34;;;19.41;38.29
48964;BME280;34776;48.180;16.420;2023-03-20T10:49:48;99959.81;;;19.59;37.85
48964;BME280;34776;48.180;16.420;2023-03-20T10:52:17;99955.31;;;19.90;37.65
48964;BME280;34776;48.180;16.420;2023-03-20T10:54:52;99947.72;;;20.05;37.38
48964;BME280;34776;48.180;16.420;2023-03-20T10:57:25;99947.38;;;19.89;37.31
48964;BME280;34776;48.180;16.420;2023-03-20T10:59:55;99950.47;;;19.84;37.19
48964;BME280;34776;48.180;16.420;2023-03-20T11:02:21;99947.34;;;19.79;37.73
48964;BME280;34776;48.180;16.420;2023-03-20T11:04:49;99947.53;;;19.66;37.64
48964;BME280;34776;48.180;16.420;2023-03-20T11:07:31;99950.81;;;19.48;37.65
48964;BME280;34776;48.180;16.420;2023-03-20T11:12:31;99933.94;;;19.98;37.58
48964;BME280;34776;48.180;16.420;2023-03-20T11:14:59;99927.31;;;20.22;37.36
48964;BME280;34776;48.180;16.420;2023-03-20T11:17:28;99934.59;;;20.41;37.00
48964;BME280;34776;48.180;16.420;2023-03-20T11:20:02;99932.53;;;20.64;36.65
48964;BME280;34776;48.180;16.420;2023-03-20T11:22:28;99930.28;;;21.08;36.51
48964;BME280;34776;48.180;16.420;2023-03-20T11:24:56;99931.41;;;21.15;35.95
48964;BME280;34776;48.180;16.420;2023-03-20T11:27:27;99920.31;;;21.18;36.44
48964;BME280;34776;48.180;16.420;2023-03-20T11:29:53;99908.91;;;21.44;35.90
48964;BME280;34776;48.180;16.420;2023-03-20T11:32:33;99911.44;;;21.65;35.40
48964;BME280;34776;48.180;16.420;2023-03-20T11:35:29;99914.56;;;21.60;33.87
48964;BME280;34776;48.180;16.420;2023-03-20T11:38:31;99914.06;;;21.18;35.07
48964;BME280;34776;48.180;16.420;2023-03-20T11:40:56;99899.66;;;21.37;35.40
48964;BME280;34776;48.180;16.420;2023-03-20T11:43:25;99896.19;;;21.64;35.44
48964;BME280;34776;48.180;16.420;2023-03-20T11:45:56;99907.78;;;21.84;34.52
48964;BME280;34776;48.180;16.420;2023-03-20T11:48:24;99892.75;;;21.72;34.44
48964;BME280;34776;48.180;16.420;2023-03-20T11:51:07;99890.91;;;21.62;34.13
48964;BME280;34776;48.180;16.420;2023-03-20T12:04:00;99882.34;;;22.50;33.64
48964;BME280;34776;48.180;16.420;2023-03-20T12:06:38;99879.56;;;22.24;34.12
48964;BME280;34776;48.180;16.420;2023-03-20T12:09:15;99872.69;;;21.64;35.05
48964;BME280;34776;48.180;16.420;2023-03-20T12:11:51;99876.63;;;21.33;35.79
48964;BME280;34776;48.180;16.420;2023-03-20T12:14:26;99877.31;;;21.35;35.49
48964;BME280;34776;48.180;16.420;2023-03-20T12:17:13;99877.03;;;21.47;35.76
48964;BME280;34776;48.180;16.420;2023-03-20T12:19:44;99870.38;;;22.07;35.00
48964;BME280;34776;48.180;16.420;2023-03-20T12:22:34;99872.03;;;22.36;33.90
48964;BME280;34776;48.180;16.420;2023-03-20T12:25:20;99871.44;;;22.42;33.99
48964;BME280;34776;48.180;16.420;2023-03-20T12:28:32;99874.47;;;22.57;33.47
48964;BME280;34776;48.180;16.420;2023-03-20T12:31:43;99871.50;;;21.77;35.07
48964;BME280;34776;48.180;16.420;2023-03-20T12:34:37;99877.19;;;21.26;35.66
48964;BME280;34776;48.180;16.420;2023-03-20T12:37:09;99873.44;;;21.00;36.39
48964;BME280;34776;48.180;16.420;2023-03-20T12:39:37;99883.09;;;21.02;36.16
48964;BME280;34776;48.180;16.420;2023-03-20T12:45:12;99879.25;;;20.56;36.31
48964;BME280;34776;48.180;16.420;2023-03-20T12:50:37;99875.72;;;20.65;36.78
48964;BME280;34776;48.180;16.420;2023-03-20T13:01:49;99861.38;;;21.51;35.67
48964;BME280;34776;48.180;16.420;2023-03-20T13:07:20;99867.81;;;22.51;33.31
48964;BME280;34776;48.180;16.420;2023-03-20T13:09:59;99863.16;;;22.61;33.40
48964;BME280;34776;48.180;16.420;2023-03-20T13:12:52;99862.09;;;22.72;33.19
48964;BME280;34776;48.180;16.420;2023-03-20T13:16:06;99862.38;;;22.69;32.91
48964;BME280;34776;48.180;16.420;2023-03-20T13:18:44;99864.72;;;22.18;33.62
48964;BME280;34776;48.180;16.420;2023-03-20T13:21:21;99857.16;;;21.66;34.30
48964;BME280;34776;48.180;16.420;2023-03-20T13:26:33;99866.00;;;21.02;35.67
48964;BME280;34776;48.180;16.420;2023-03-20T13:29:31;99855.25;;;20.63;36.03
48964;BME280;34776;48.180;16.420;2023-03-20T13:35:34;99856.06;;;20.44;36.90
48964;BME280;34776;48.180;16.420;2023-03-20T13:38:17;99854.22;;;20.54;37.22
48964;BME280;34776;48.180;16.420;2023-03-20T13:40:46;99851.25;;;20.96;36.69
48964;BME280;34776;48.180;16.420;2023-03-20T13:43:20;99843.38;;;21.69;35.91
48964;BME280;34776;48.180;16.420;2023-03-20T13:45:50;99833.63;;;21.77;34.96
48964;BME280;34776;48.180;16.420;2023-03-20T13:48:38;99840.53;;;21.14;35.94
48964;BME280;34776;48.180;16.420;2023-03-20T13:53:43;99849.19;;;21.27;35.53
48964;BME280;34776;48.180;16.420;2023-03-20T14:02:18;99841.81;;;21.10;35.22
48964;BME280;34776;48.180;16.420;2023-03-20T14:04:40;99846.69;;;20.97;35.44
48964;BME280;34776;48.180;16.420;2023-03-20T14:07:35;99844.44;;;20.82;35.78
48964;BME280;34776;48.180;16.420;2023-03-20T14:13:02;99848.09;;;20.23;36.86
48964;BME280;34776;48.180;16.420;2023-03-20T14:15:37;99844.66;;;20.11;36.97
48964;BME280;34776;48.180;16.420;2023-03-20T14:18:14;99834.09;;;19.79;37.96
48964;BME280;34776;48.180;16.420;2023-03-20T14:20:41;99848.75;;;19.55;37.87
48964;BME280;34776;48.180;16.420;2023-03-20T14:23:19;99847.00;;;19.54;38.19
48964;BME280;34776;48.180;16.420;2023-03-20T14:25:55;99839.94;;;19.53;38.03
48964;BME280;34776;48.180;16.420;2023-03-20T14:28:28;99842.16;;;19.48;38.63
48964;BME280;34776;48.180;16.420;2023-03-20T14:31:27;99830.06;;;19.33;38.64
48964;BME280;34776;48.180;16.420;2023-03-20T14:37:04;99838.13;;;19.33;39.14
48964;BME280;34776;48.180;16.420;2023-03-20T14:39:53;99831.56;;;19.25;38.96
48964;BME280;34776;48.180;16.420;2023-03-20T14:46:13;99830.34;;;18.88;40.29
48964;BME280;34776;48.180;16.420;2023-03-20T14:48:37;99830.06;;;18.70;40.91
48964;BME280;34776;48.180;16.420;2023-03-20T14:51:26;99827.44;;;18.58;40.83
48964;BME280;34776;48.180;16.420;2023-03-20T14:54:29;99830.47;;;18.65;41.12
48964;BME280;34776;48.180;16.420;2023-03-20T14:56:55;99837.13;;;18.71;40.50
48964;BME280;34776;48.180;16.420;2023-03-20T14:59:32;99829.41;;;18.77;40.38
48964;BME280;34776;48.180;16.420;2023-03-20T15:02:01;99830.75;;;18.83;40.28
48964;BME280;34776;48.180;16.420;2023-03-20T15:07:13;99841.50;;;18.83;40.38
48964;BME280;34776;48.180;16.420;2023-03-20T15:09:42;99836.41;;;18.80;40.10
48964;BME280;34776;48.180;16.420;2023-03-20T15:12:11;99828.69;;;18.75;40.07
48964;BME280;34776;48.180;16.420;2023-03-20T15:14:51;99832.16;;;18.66;40.17
48964;BME280;34776;48.180;16.420;2023-03-20T15:17:22;99820.44;;;18.56;40.10
48964;BME280;34776;48.180;16.420;2023-03-20T15:19:49;99827.59;;;18.45;40.45
48964;BME280;34776;48.180;16.420;2023-03-20T15:22:18;99829.66;;;18.21;41.01
48964;BME280;34776;48.180;16.420;2023-03-20T15:24:52;99831.63;;;18.08;41.01
48964;BME280;34776;48.180;16.420;2023-03-20T15:27:18;99830.16;;;18.15;41.11
48964;BME280;34776;48.180;16.420;2023-03-20T15:29:53;99834.94;;;18.11;41.03
48964;BME280;34776;48.180;16.420;2023-03-20T15:32:19;99836.28;;;18.05;40.92
48964;BME280;34776;48.180;16.420;2023-03-20T15:34:46;99837.31;;;17.93;41.01
48964;BME280;34776;48.180;16.420;2023-03-20T15:37:15;99836.81;;;17.88;40.98
48964;BME280;34776;48.180;16.420;2023-03-20T15:39:44;99836.34;;;17.83;41.50
48964;BME280;34776;48.180;16.420;2023-03-20T15:42:13;99834.72;;;17.80;41.62
48964;BME280;34776;48.180;16.420;2023-03-20T15:44:41;99841.94;;;17.80;41.47
48964;BME280;34776;48.180;16.420;2023-03-20T15:47:11;99845.00;;;17.87;41.46
48964;BME280;34776;48.180;16.420;2023-03-20T15:49:39;99841.25;;;17.89;41.22
48964;BME280;34776;48.180;16.420;2023-03-20T15:52:26;99846.63;;;17.89;41.57
48964;BME280;34776;48.180;16.420;2023-03-20T15:54:54;99853.19;;;17.74;41.15
48964;BME280;34776;48.180;16.420;2023-03-20T15:57:25;99855.16;;;17.49;41.43
48964;BME280;34776;48.180;16.420;2023-03-20T15:59:54;99852.94;;;17.32;41.74
48964;BME280;34776;48.180;16.420;2023-03-20T16:02:20;99857.69;;;17.17;41.83
48964;BME280;34776;48.180;16.420;2023-03-20T16:04:51;99850.22;;;16.98;42.33
48964;BME280;34776;48.180;16.420;2023-03-20T16:07:26;99857.03;;;16.91;42.61
48964;BME280;34776;48.180;16.420;2023-03-20T16:09:52;99859.44;;;16.82;42.82
48964;BME280;34776;48.180;16.420;2023-03-20T16:12:18;99855.25;;;16.78;42.96
48964;BME280;34776;48.180;16.420;2023-03-20T16:14:46;99866.22;;;16.75;43.06
48964;BME280;34776;48.180;16.420;2023-03-20T16:17:13;99858.88;;;16.66;43.28
48964;BME280;34776;48.180;16.420;2023-03-20T16:19:40;99866.53;;;16.59;43.61
48964;BME280;34776;48.180;16.420;2023-03-20T16:22:27;99865.13;;;16.42;44.36
48964;BME280;34776;48.180;16.420;2023-03-20T16:24:56;99865.47;;;16.38;44.02
48964;BME280;34776;48.180;16.420;2023-03-20T16:27:26;99873.97;;;16.32;44.28
48964;BME280;34776;48.180;16.420;2023-03-20T16:29:53;99875.03;;;16.29;44.22
48964;BME280;34776;48.180;16.420;2023-03-20T16:32:21;99879.03;;;16.23;44.74
48964;BME280;34776;48.180;16.420;2023-03-20T16:34:51;99865.94;;;16.19;44.63
48964;BME280;34776;48.180;16.420;2023-03-20T16:37:27;99878.84;;;16.14;45.68
48964;BME280;34776;48.180;16.420;2023-03-20T16:42:52;99869.41;;;15.84;46.33
48964;BME280;34776;48.180;16.420;2023-03-20T16:45:33;99876.91;;;15.79;47.40
48964;BME280;34776;48.180;16.420;2023-03-20T16:50:35;99883.13;;;15.67;47.18
48964;BME280;34776;48.180;16.420;2023-03-20T16:53:02;99894.38;;;15.59;47.89
48964;BME280;34776;48.180;16.420;2023-03-20T16:55:30;99888.63;;;15.52;48.27
48964;BME280;34776;48.180;16.420;2023-03-20T16:58:04;99885.06;;;15.39;49.28
48964;BME280;34776;48.180;16.420;2023-03-20T17:00:40;99890.66;;;15.36;48.86
48964;BME280;34776;48.180;16.420;2023-03-20T17:04:11;99883.78;;;15.32;48.88
48964;BME280;34776;48.180;16.420;2023-03-20T17:06:24;99889.81;;;15.22;49.37
48964;BME280;34776;48.180;16.420;2023-03-20T17:09:00;99891.72;;;15.20;49.70
48964;BME280;34776;48.180;16.420;2023-03-20T17:11:34;99887.66;;;15.15;50.34
48964;BME280;34776;48.180;16.420;2023-03-20T17:14:00;99896.00;;;15.10;50.00
48964;BME280;34776;48.180;16.420;2023-03-20T17:16:29;99899.84;;;15.06;50.32
48964;BME280;34776;48.180;16.420;2023-03-20T17:19:01;99898.34;;;15.02;51.71
48964;BME280;34776;48.180;16.420;2023-03-20T17:21:29;99906.88;;;14.94;51.31
48964;BME280;34776;48.180;16.420;2023-03-20T17:23:54;99916.84;;;14.92;51.65
48964;BME280;34776;48.180;16.420;2023-03-20T17:26:20;99916.31;;;14.87;51.96
48964;BME280;34776;48.180;16.420;2023-03-20T17:28:45;99912.78;;;14.87;52.33
48964;BME280;34776;48.180;16.420;2023-03-20T17:31:12;99926.34;;;14.84;52.29
48964;BME280;34776;48.180;16.420;2023-03-20T17:33:38;99923.34;;;14.88;52.30
48964;BME280;34776;48.180;16.420;2023-03-20T17:36:11;99925.59;;;14.81;53.15
48964;BME280;34776;48.180;16.420;2023-03-20T17:38:38;99937.44;;;14.77;52.93
48964;BME280;34776;48.180;16.420;2023-03-20T17:41:04;99930.41;;;14.76;52.99
48964;BME280;34776;48.180;16.420;2023-03-20T17:43:29;99936.16;;;14.70;53.27
48964;BME280;34776;48.180;16.420;2023-03-20T17:45:54;99934.34;;;14.71;53.31
48964;BME280;34776;48.180;16.420;2023-03-20T17:48:20;99946.09;;;14.68;53.53
48964;BME280;34776;48.180;16.420;2023-03-20T17:50:48;99938.06;;;14.68;53.71
48964;BME280;34776;48.180;16.420;2023-03-20T17:53:23;99938.94;;;14.69;53.82
48964;BME280;34776;48.180;16.420;2023-03-20T17:55:50;99943.44;;;14.68;53.84
48964;BME280;34776;48.180;16.420;2023-03-20T17:58:17;99943.84;;;14.62;54.13
48964;BME280;34776;48.180;16.420;2023-03-20T18:00:43;99948.50;;;14.58;54.20
48964;BME280;34776;48.180;16.420;2023-03-20T18:03:08;99954.72;;;14.59;54.04
48964;BME280;34776;48.180;16.420;2023-03-20T18:05:34;99950.88;;;14.63;53.85
48964;BME280;34776;48.180;16.420;2023-03-20T18:08:03;99950.47;;;14.69;53.78
48964;BME280;34776;48.180;16.420;2023-03-20T18:10:30;99945.34;;;14.66;53.73
48964;BME280;34776;48.180;16.420;2023-03-20T18:12:59;99954.13;;;14.68;53.77
48964;BME280;34776;48.180;16.420;2023-03-20T18:15:25;99943.22;;;14.71;53.44
48964;BME280;34776;48.180;16.420;2023-03-20T18:17:50;99945.88;;;14.71;53.59
48964;BME280;34776;48.180;16.420;2023-03-20T18:20:31;99944.28;;;14.69;54.78
48964;BME280;34776;48.180;16.420;2023-03-20T18:22:57;99946.28;;;14.65;53.97
48964;BME280;34776;48.180;16.420;2023-03-20T18:25:23;99949.59;;;14.56;54.17
48964;BME280;34776;48.180;16.420;2023-03-20T18:27:51;99946.13;;;14.54;54.41
48964;BME280;34776;48.180;16.420;2023-03-20T18:30:19;99956.06;;;14.52;54.46
48964;BME280;34776;48.180;16.420;2023-03-20T18:32:45;99955.28;;;14.50;54.54
48964;BME280;34776;48.180;16.420;2023-03-20T18:35:10;99955.47;;;14.47;54.59
48964;BME280;34776;48.180;16.420;2023-03-20T18:37:37;99958.72;;;14.52;54.37
48964;BME280;34776;48.180;16.420;2023-03-20T18:40:03;99948.34;;;14.47;54.35
48964;BME280;34776;48.180;16.420;2023-03-20T18:42:31;99951.88;;;14.48;54.67
48964;BME280;34776;48.180;16.420;2023-03-20T18:44:57;99955.69;;;14.44;54.46
48964;BME280;34776;48.180;16.420;2023-03-20T18:47:22;99957.59;;;14.41;54.68
48964;BME280;34776;48.180;16.420;2023-03-20T18:49:47;99957.06;;;14.36;54.99
48964;BME280;34776;48.180;16.420;2023-03-20T18:52:14;99950.66;;;14.39;54.99
48964;BME280;34776;48.180;16.420;2023-03-20T18:54:39;99951.72;;;14.36;54.87
48964;BME280;34776;48.180;16.420;2023-03-20T18:57:05;99948.28;;;14.34;55.10
48964;BME280;34776;48.180;16.420;2023-03-20T18:59:30;99951.91;;;14.33;55.10
48964;BME280;34776;48.180;16.420;2023-03-20T19:01:55;99959.81;;;14.35;55.31
48964;BME280;34776;48.180;16.420;2023-03-20T19:04:21;99959.91;;;14.33;54.97
48964;BME280;34776;48.180;16.420;2023-03-20T19:06:47;99952.19;;;14.29;55.39
48964;BME280;34776;48.180;16.420;2023-03-20T19:09:13;99950.59;;;14.26;55.52
48964;BME280;34776;48.180;16.420;2023-03-20T19:11:40;99960.13;;;14.30;55.19
48964;BME280;34776;48.180;16.420;2023-03-20T19:14:05;99950.38;;;14.29;55.09
48964;BME280;34776;48.180;16.420;2023-03-20T19:16:32;99958.63;;;14.26;55.22
48964;BME280;34776;48.180;16.420;2023-03-20T19:19:00;99952.50;;;14.24;55.51
48964;BME280;34776;48.180;16.420;2023-03-20T19:21:28;99954.50;;;14.20;55.48
48964;BME280;34776;48.180;16.420;2023-03-20T19:23:55;99949.25;;;14.19;55.42
48964;BME280;34776;48.180;16.420;2023-03-20T19:26:22;99961.00;;;14.16;55.46
48964;BME280;34776;48.180;16.420;2023-03-20T19:28:51;99957.47;;;14.16;55.28
48964;BME280;34776;48.180;16.420;2023-03-20T19:31:17;99954.13;;;14.12;55.65
48964;BME280;34776;48.180;16.420;2023-03-20T19:33:43;99953.47;;;14.09;55.81
48964;BME280;34776;48.180;16.420;2023-03-20T19:36:29;99950.78;;;14.09;55.87
48964;BME280;34776;48.180;16.420;2023-03-20T19:38:56;99955.09;;;14.11;55.70
48964;BME280;34776;48.180;16.420;2023-03-20T19:41:22;99950.91;;;14.07;55.56
48964;BME280;34776;48.180;16.420;2023-03-20T19:43:48;99962.84;;;14.01;55.93
48964;BME280;34776;48.180;16.420;2023-03-20T19:46:15;99965.72;;;13.98;56.17
48964;BME280;34776;48.180;16.420;2023-03-20T19:48:42;99966.66;;;13.97;56.09
48964;BME280;34776;48.180;16.420;2023-03-20T19:51:19;99954.91;;;14.00;55.96
48964;BME280;34776;48.180;16.420;2023-03-20T19:53:46;99963.38;;;14.07;55.90
48964;BME280;34776;48.180;16.420;2023-03-20T19:56:13;99960.94;;;14.04;55.69
48964;BME280;34776;48.180;16.420;2023-03-20T19:58:39;99965.50;;;14.01;55.85
48964;BME280;34776;48.180;16.420;2023-03-20T20:01:06;99965.72;;;13.98;56.09
48964;BME280;34776;48.180;16.420;2023-03-20T20:03:32;99970.19;;;13.98;56.26
48964;BME280;34776;48.180;16.420;2023-03-20T20:05:58;99968.56;;;13.95;56.42
48964;BME280;34776;48.180;16.420;2023-03-20T20:08:26;99973.81;;;13.97;56.16
48964;BME280;34776;48.180;16.420;2023-03-20T20:10:52;99968.56;;;13.95;56.40
48964;BME280;34776;48.180;16.420;2023-03-20T20:13:23;99961.59;;;13.93;56.63
48964;BME280;34776;48.180;16.420;2023-03-20T20:15:50;99964.38;;;13.91;56.46
48964;BME280;34776;48.180;16.420;2023-03-20T20:18:16;99962.00;;;13.87;56.85
48964;BME280;34776;48.180;16.420;2023-03-20T20:20:42;99970.84;;;13.87;56.50
48964;BME280;34776;48.180;16.420;2023-03-20T20:23:09;99956.66;;;13.87;56.67
48964;BME280;34776;48.180;16.420;2023-03-20T20:25:35;99963.22;;;13.81;57.04
48964;BME280;34776;48.180;16.420;2023-03-20T20:28:01;99972.38;;;13.77;57.03
48964;BME280;34776;48.180;16.420;2023-03-20T20:30:26;99964.38;;;13.77;56.95
48964;BME280;34776;48.180;16.420;2023-03-20T20:32:52;99967.25;;;13.74;57.12
48964;BME280;34776;48.180;16.420;2023-03-20T20:35:17;99963.59;;;13.75;57.40
48964;BME280;34776;48.180;16.420;2023-03-20T20:37:44;99963.59;;;13.75;57.03
48964;BME280;34776;48.180;16.420;2023-03-20T20:40:12;99964.88;;;13.69;57.28
48964;BME280;34776;48.180;16.420;2023-03-20T20:42:38;99966.66;;;13.69;57.32
48964;BME280;34776;48.180;16.420;2023-03-20T20:45:06;99961.31;;;13.69;57.52
48964;BME280;34776;48.180;16.420;2023-03-20T20:47:32;99967.63;;;13.68;57.51
48964;BME280;34776;48.180;16.420;2023-03-20T20:49:58;99973.25;;;13.63;57.51
48964;BME280;34776;48.180;16.420;2023-03-20T20:52:23;99968.75;;;13.64;57.38
48964;BME280;34776;48.180;16.420;2023-03-20T20:54:49;99968.16;;;13.58;57.75
48964;BME280;34776;48.180;16.420;2023-03-20T20:57:14;99964.94;;;13.53;57.84
48964;BME280;34776;48.180;16.420;2023-03-20T20:59:40;99966.00;;;13.51;57.94
48964;BME280;34776;48.180;16.420;2023-03-20T21:02:07;99968.75;;;13.49;58.00
48964;BME280;34776;48.180;16.420;2023-03-20T21:04:41;99971.69;;;13.45;58.25
48964;BME280;34776;48.180;16.420;2023-03-20T21:07:09;99958.28;;;13.46;58.06
48964;BME280;34776;48.180;16.420;2023-03-20T21:09:35;99973.59;;;13.43;58.19
48964;BME280;34776;48.180;16.420;2023-03-20T21:12:01;99967.41;;;13.42;58.23
48964;BME280;34776;48.180;16.420;2023-03-20T21:14:27;99967.66;;;13.37;58.46
48964;BME280;34776;48.180;16.420;2023-03-20T21:16:53;99975.03;;;13.34;58.39
48964;BME280;34776;48.180;16.420;2023-03-20T21:19:25;99981.41;;;13.31;58.33
48964;BME280;34776;48.180;16.420;2023-03-20T21:21:51;99969.84;;;13.31;58.41
48964;BME280;34776;48.180;16.420;2023-03-20T21:24:16;99962.81;;;13.30;58.55
48964;BME280;34776;48.180;16.420;2023-03-20T21:26:41;99971.59;;;13.32;58.36
48964;BME280;34776;48.180;16.420;2023-03-20T21:29:07;99966.03;;;13.35;58.18
48964;BME280;34776;48.180;16.420;2023-03-20T21:31:34;99969.84;;;13.31;58.58
48964;BME280;34776;48.180;16.420;2023-03-20T21:33:59;99977.97;;;13.29;58.56
48964;BME280;34776;48.180;16.420;2023-03-20T21:36:25;99967.50;;;13.25;58.21
48964;BME280;34776;48.180;16.420;2023-03-20T21:38:50;99981.06;;;13.22;58.39
48964;BME280;34776;48.180;16.420;2023-03-20T21:41:15;99973.13;;;13.20;58.43
48964;BME280;34776;48.180;16.420;2023-03-20T21:43:41;99970.56;;;13.18;58.37
48964;BME280;34776;48.180;16.420;2023-03-20T21:46:10;99971.50;;;13.17;58.43
48964;BME280;34776;48.180;16.420;2023-03-20T21:48:36;99986.75;;;13.15;58.24
48964;BME280;34776;48.180;16.420;2023-03-20T21:51:02;99977.78;;;13.16;58.14
48964;BME280;34776;48.180;16.420;2023-03-20T21:53:27;99983.31;;;13.13;58.04
48964;BME280;34776;48.180;16.420;2023-03-20T21:55:53;99985.22;;;13.11;58.20
48964;BME280;34776;48.180;16.420;2023-03-20T21:58:18;99988.84;;;13.10;58.07
48964;BME280;34776;48.180;16.420;2023-03-20T22:00:44;99971.09;;;13.09;58.25
48964;BME280;34776;48.180;16.420;2023-03-20T22:03:10;99986.25;;;13.09;58.33
48964;BME280;34776;48.180;16.420;2023-03-20T22:05:39;99983.75;;;13.06;58.62
48964;BME280;34776;48.180;16.420;2023-03-20T22:08:04;99992.66;;;13.06;58.24
48964;BME280;34776;48.180;16.420;2023-03-20T22:10:30;99991.09;;;13.02;58.22
48964;BME280;34776;48.180;16.420;2023-03-20T22:12:55;99982.34;;;13.00;58.40
48964;BME280;34776;48.180;16.420;2023-03-20T22:15:22;99989.56;;;12.98;58.64
48964;BME280;34776;48.180;16.420;2023-03-20T22:17:47;99986.13;;;12.96;58.56
48964;BME280;34776;48.180;16.420;2023-03-20T22:20:14;99984.31;;;12.96;58.83
48964;BME280;34776;48.180;16.420;2023-03-20T22:22:40;99984.22;;;12.98;58.71
48964;BME280;34776;48.180;16.420;2023-03-20T22:25:05;99985.09;;;12.98;58.68
48964;BME280;34776;48.180;16.420;2023-03-20T22:27:31;99989.56;;;12.98;58.84
48964;BME280;34776;48.180;16.420;2023-03-20T22:29:56;99982.50;;;12.97;58.55
48964;BME280;34776;48.180;16.420;2023-03-20T22:32:21;99980.88;;;12.94;58.63
48964;BME280;34776;48.180;16.420;2023-03-20T22:34:47;99988.97;;;12.93;59.02
48964;BME280;34776;48.180;16.420;2023-03-20T22:37:12;99989.16;;;12.90;59.02
48964;BME280;34776;48.180;16.420;2023-03-20T22:39:38;99984.75;;;12.89;59.02
48964;BME280;34776;48.180;16.420;2023-03-20T22:42:03;99986.75;;;12.85;59.12
48964;BME280;34776;48.180;16.420;2023-03-20T22:44:29;99985.28;;;12.79;59.33
48964;BME280;34776;48.180;16.420;2023-03-20T22:46:54;99970.69;;;12.71;59.80
48964;BME280;34776;48.180;16.420;2023-03-20T22:49:19;99983.53;;;12.64;59.94
48964;BME280;34776;48.180;16.420;2023-03-20T22:51:45;99978.44;;;12.59;60.26
48964;BME280;34776;48.180;16.420;2023-03-20T22:54:10;99983.94;;;12.56;60.19
48964;BME280;34776;48.180;16.420;2023-03-20T22:56:36;99976.22;;;12.52;60.51
48964;BME280;34776;48.180;16.420;2023-03-20T22:59:01;99976.38;;;12.49;60.33
48964;BME280;34776;48.180;16.420;2023-03-20T23:01:26;99977.50;;;12.45;60.45
48964;BME280;34776;48.180;16.420;2023-03-20T23:03:52;99978.72;;;12.39;61.05
48964;BME280;34776;48.180;16.420;2023-03-20T23:06:23;99971.91;;;12.33;60.91
48964;BME280;34776;48.180;16.420;2023-03-20T23:08:50;99979.41;;;12.27;61.58
48964;BME280;34776;48.180;16.420;2023-03-20T23:11:16;99977.84;;;12.23;61.65
48964;BME280;34776;48.180;16.420;2023-03-20T23:13:43;99974.50;;;12.19;61.86
48964;BME280;34776;48.180;16.420;2023-03-20T23:16:09;99974.66;;;12.16;62.01
48964;BME280;34776;48.180;16.420;2023-03-20T23:18:35;99980.16;;;12.13;62.54
48964;BME280;34776;48.180;16.420;2023-03-20T23:21:01;99978.44;;;12.12;62.94
48964;BME280;34776;48.180;16.420;2023-03-20T23:23:27;99973.00;;;12.13;62.52
48964;BME280;34776;48.180;16.420;2023-03-20T23:26:10;99970.53;;;12.10;63.45
48964;BME280;34776;48.180;16.420;2023-03-20T23:28:37;99969.69;;;12.10;62.64
48964;BME280;34776;48.180;16.420;2023-03-20T23:31:06;99970.59;;;12.09;62.76
48964;BME280;34776;48.180;16.420;2023-03-20T23:33:33;99959.03;;;12.10;62.60
48964;BME280;34776;48.180;16.420;2023-03-20T23:35:58;99960.66;;;12.12;62.43